createdAt,value
2018-08-16T00:01:35.036Z,97.65
2018-08-16T00:04:03.577Z,98.27
2018-08-16T00:06:32.070Z,97.73
2018-08-16T00:09:00.573Z,97.47
2018-08-16T00:11:29.021Z,97.87
2018-08-16T00:13:57.509Z,97.97
2018-08-16T00:16:26.029Z,99.18
2018-08-16T00:18:54.533Z,99.03
2018-08-16T00:21:22.989Z,99.82
2018-08-16T00:23:51.526Z,99.81
2018-08-16T00:26:20.025Z,99.70
2018-08-16T00:28:48.515Z,99.50
2018-08-16T00:31:17.030Z,99.41
2018-08-16T00:33:45.482Z,99.39
2018-08-16T00:36:13.959Z,99.32
2018-08-16T00:38:42.409Z,99.80
2018-08-16T00:41:10.853Z,100.00
2018-08-16T00:43:39.289Z,100.00
2018-08-16T00:46:07.774Z,100.00
2018-08-16T00:48:36.224Z,100.00
2018-08-16T00:51:04.673Z,100.00
2018-08-16T00:53:33.106Z,100.00
2018-08-16T00:56:01.539Z,100.00
2018-08-16T00:58:29.985Z,100.00
2018-08-16T01:00:58.426Z,100.00
2018-08-16T01:03:26.881Z,100.00
2018-08-16T01:05:55.285Z,99.98
2018-08-16T01:08:23.706Z,99.44
2018-08-16T01:10:52.211Z,99.37
2018-08-16T01:13:20.696Z,99.85
2018-08-16T01:15:49.098Z,99.49
2018-08-16T01:18:17.541Z,99.71
2018-08-16T01:20:46.080Z,100.00
2018-08-16T01:23:14.526Z,100.00
2018-08-16T01:25:43.029Z,100.00
2018-08-16T01:28:11.501Z,100.00
2018-08-16T01:30:39.959Z,100.00
2018-08-16T01:33:08.850Z,100.00
2018-08-16T01:35:37.317Z,100.00
2018-08-16T01:38:05.726Z,100.00
2018-08-16T01:40:34.201Z,100.00
2018-08-16T01:43:02.701Z,100.00
2018-08-16T01:45:31.185Z,100.00
2018-08-16T01:47:59.613Z,100.00
2018-08-16T01:50:28.067Z,100.00
2018-08-16T01:52:56.499Z,100.00
2018-08-16T01:55:24.993Z,100.00
2018-08-16T01:57:53.367Z,100.00
2018-08-16T02:00:21.806Z,100.00
2018-08-16T02:02:50.212Z,100.00
2018-08-16T02:05:18.755Z,100.00
2018-08-16T02:07:47.174Z,100.00
2018-08-16T02:10:15.627Z,100.00
2018-08-16T02:12:44.031Z,100.00
2018-08-16T02:15:13.592Z,100.00
2018-08-16T02:17:42.198Z,100.00
2018-08-16T02:20:12.643Z,100.00
2018-08-16T02:22:41.263Z,100.00
2018-08-16T02:25:09.761Z,100.00
2018-08-16T02:27:38.157Z,100.00
2018-08-16T02:30:07.198Z,100.00
2018-08-16T02:32:35.848Z,100.00
2018-08-16T02:35:04.531Z,100.00
2018-08-16T02:37:33.062Z,100.00
2018-08-16T02:40:01.466Z,100.00
2018-08-16T02:42:29.852Z,100.00
2018-08-16T02:44:58.262Z,100.00
2018-08-16T02:47:26.676Z,100.00
2018-08-16T02:49:55.176Z,100.00
2018-08-16T02:52:23.646Z,100.00
2018-08-16T02:54:52.099Z,100.00
2018-08-16T02:57:20.532Z,100.00
2018-08-16T02:59:49.018Z,100.00
2018-08-16T03:02:17.475Z,100.00
2018-08-16T03:04:45.934Z,100.00
2018-08-16T03:07:14.565Z,100.00
2018-08-16T03:09:43.014Z,100.00
2018-08-16T03:12:11.661Z,100.00
2018-08-16T03:14:41.159Z,100.00
2018-08-16T03:17:09.590Z,100.00
2018-08-16T03:19:38.043Z,100.00
2018-08-16T03:22:06.635Z,100.00
2018-08-16T03:24:35.134Z,100.00
2018-08-16T03:27:03.622Z,100.00
2018-08-16T03:29:32.141Z,100.00
2018-08-16T03:32:00.628Z,100.00
2018-08-16T03:34:29.098Z,100.00
2018-08-16T03:36:57.581Z,100.00
2018-08-16T03:39:26.062Z,100.00
2018-08-16T03:41:54.555Z,100.00
2018-08-16T03:44:23.083Z,100.00
2018-08-16T03:46:51.533Z,100.00
2018-08-16T03:49:20.011Z,100.00
2018-08-16T03:51:48.530Z,100.00
2018-08-16T03:54:17.013Z,100.00
2018-08-16T03:56:45.527Z,100.00
2018-08-16T03:59:23.765Z,100.00
2018-08-16T04:01:52.248Z,100.00
2018-08-16T04:04:20.661Z,100.00
2018-08-16T04:06:49.129Z,100.00
2018-08-16T04:09:17.598Z,100.00
2018-08-16T04:11:46.093Z,100.00
2018-08-16T04:14:14.513Z,100.00
2018-08-16T04:16:42.974Z,100.00
2018-08-16T04:19:11.400Z,100.00
2018-08-16T04:21:39.918Z,100.00
2018-08-16T04:24:08.465Z,100.00
2018-08-16T04:26:36.999Z,100.00
2018-08-16T04:29:05.512Z,100.00
2018-08-16T04:31:33.986Z,100.00
2018-08-16T04:34:02.423Z,100.00
2018-08-16T04:36:30.904Z,100.00
2018-08-16T04:38:59.382Z,100.00
2018-08-16T04:41:27.912Z,100.00
2018-08-16T04:43:56.369Z,100.00
2018-08-16T04:46:24.874Z,100.00
2018-08-16T04:48:53.375Z,100.00
2018-08-16T04:51:21.930Z,100.00
2018-08-16T04:53:50.386Z,100.00
2018-08-16T04:56:18.884Z,100.00
2018-08-16T04:58:47.360Z,100.00
2018-08-16T05:01:15.813Z,100.00
2018-08-16T05:03:44.245Z,100.00
2018-08-16T05:06:12.724Z,100.00
2018-08-16T05:08:41.454Z,100.00
2018-08-16T05:11:10.045Z,100.00
2018-08-16T05:13:38.508Z,100.00
2018-08-16T05:16:06.985Z,100.00
2018-08-16T05:18:35.438Z,100.00
2018-08-16T05:21:03.952Z,100.00
2018-08-16T05:23:32.450Z,100.00
2018-08-16T05:26:00.970Z,100.00
2018-08-16T05:28:29.435Z,100.00
2018-08-16T05:30:57.921Z,100.00
2018-08-16T05:33:26.410Z,100.00
2018-08-16T05:35:54.923Z,100.00
2018-08-16T05:38:23.388Z,100.00
2018-08-16T05:40:51.957Z,100.00
2018-08-16T05:43:20.525Z,100.00
2018-08-16T05:45:48.988Z,100.00
2018-08-16T05:48:17.457Z,100.00
2018-08-16T05:50:45.962Z,100.00
2018-08-16T05:53:14.405Z,100.00
2018-08-16T05:55:43.557Z,100.00
2018-08-16T05:58:13.103Z,100.00
2018-08-16T06:00:41.983Z,100.00
2018-08-16T06:03:10.514Z,100.00
2018-08-16T06:05:38.970Z,100.00
2018-08-16T06:08:07.538Z,100.00
2018-08-16T06:10:36.056Z,99.79
2018-08-16T06:13:04.521Z,99.15
2018-08-16T06:15:33.137Z,99.65
2018-08-16T06:18:01.723Z,99.67
2018-08-16T06:20:30.221Z,98.94
2018-08-16T06:22:58.805Z,98.53
2018-08-16T06:25:27.372Z,99.48
2018-08-16T06:27:56.321Z,99.96
2018-08-16T06:30:24.862Z,99.61
2018-08-16T06:32:53.329Z,98.55
2018-08-16T06:35:21.797Z,99.05
2018-08-16T06:37:50.277Z,98.41
2018-08-16T06:40:18.757Z,97.84
2018-08-16T06:42:48.289Z,97.77
2018-08-16T06:45:16.769Z,95.06
2018-08-16T06:47:45.305Z,94.92
2018-08-16T06:50:13.834Z,95.05
2018-08-16T06:52:43.425Z,94.87
2018-08-16T06:55:11.953Z,93.86
2018-08-16T06:57:40.572Z,91.32
2018-08-16T07:00:09.526Z,91.09
2018-08-16T07:02:38.048Z,90.45
2018-08-16T07:05:07.111Z,90.84
2018-08-16T07:07:35.898Z,90.87
2018-08-16T07:10:05.541Z,89.24
2018-08-16T07:12:34.134Z,87.93
2018-08-16T07:15:02.657Z,86.19
2018-08-16T07:17:31.153Z,86.43
2018-08-16T07:19:59.605Z,86.76
2018-08-16T07:22:28.062Z,85.19
2018-08-16T07:24:56.534Z,85.53
2018-08-16T07:27:24.968Z,85.96
2018-08-16T07:29:53.502Z,84.93
2018-08-16T07:32:21.975Z,84.44
2018-08-16T07:34:50.423Z,83.57
2018-08-16T07:37:18.897Z,83.60
2018-08-16T07:39:47.352Z,83.04
2018-08-16T07:42:15.835Z,81.48
2018-08-16T07:44:44.268Z,81.36
2018-08-16T07:47:12.825Z,80.85
2018-08-16T07:49:41.384Z,79.88
2018-08-16T07:52:09.850Z,80.41
2018-08-16T07:54:38.357Z,77.36
2018-08-16T07:57:06.975Z,78.28
2018-08-16T07:59:35.554Z,77.51
2018-08-16T08:02:04.666Z,77.21
2018-08-16T08:04:44.397Z,76.67
2018-08-16T08:07:12.943Z,75.22
2018-08-16T08:09:41.511Z,74.10
2018-08-16T08:12:09.994Z,74.08
2018-08-16T08:14:38.562Z,73.34
2018-08-16T08:17:07.078Z,75.64
2018-08-16T08:19:35.605Z,74.05
2018-08-16T08:22:04.163Z,72.16
2018-08-16T08:24:32.646Z,73.58
2018-08-16T08:27:01.149Z,73.36
2018-08-16T08:29:29.672Z,72.34
2018-08-16T08:31:58.150Z,71.40
2018-08-16T08:34:26.626Z,72.10
2018-08-16T08:37:06.226Z,71.66
2018-08-16T08:39:34.710Z,70.89
2018-08-16T08:42:03.207Z,69.25
2018-08-16T08:44:31.701Z,68.55
2018-08-16T08:47:00.177Z,66.28
2018-08-16T08:49:28.730Z,67.11
2018-08-16T08:51:57.270Z,66.66
2018-08-16T08:54:39.073Z,69.07
2018-08-16T08:57:18.726Z,67.82
2018-08-16T08:59:47.305Z,68.68
2018-08-16T09:02:17.595Z,70.78
2018-08-16T09:04:46.143Z,70.09
2018-08-16T09:07:16.045Z,69.67
2018-08-16T09:11:07.981Z,69.56
2018-08-16T09:13:47.862Z,68.42
2018-08-16T09:16:30.189Z,69.11
2018-08-16T09:18:58.909Z,69.42
2018-08-16T09:21:27.950Z,67.31
2018-08-16T09:23:56.700Z,68.43
2018-08-16T09:26:30.282Z,69.61
2018-08-16T09:28:59.014Z,67.69
2018-08-16T09:33:46.788Z,65.65
2018-08-16T09:36:15.258Z,66.93
2018-08-16T09:38:43.755Z,65.75
2018-08-16T09:41:12.233Z,65.46
2018-08-16T09:43:40.839Z,65.32
2018-08-16T09:46:55.857Z,64.60
2018-08-16T09:49:24.361Z,62.45
2018-08-16T09:51:53.052Z,63.24
2018-08-16T09:54:21.541Z,63.88
2018-08-16T09:56:50.294Z,63.70
2018-08-16T09:59:18.954Z,63.89
2018-08-16T10:01:47.471Z,63.17
2018-08-16T10:04:16.050Z,63.67
2018-08-16T10:06:45.165Z,61.59
2018-08-16T10:09:22.873Z,62.92
2018-08-16T10:11:51.857Z,61.95
2018-08-16T10:14:21.030Z,62.95
2018-08-16T10:16:49.729Z,61.87
2018-08-16T10:19:18.766Z,61.14
2018-08-16T10:21:47.273Z,61.51
2018-08-16T10:24:15.757Z,60.98
2018-08-16T10:26:44.256Z,60.46
2018-08-16T10:29:13.249Z,60.01
2018-08-16T10:31:41.777Z,60.68
2018-08-16T10:34:10.468Z,58.62
2018-08-16T10:36:38.921Z,59.59
2018-08-16T10:39:13.037Z,59.74
2018-08-16T10:41:41.747Z,59.26
2018-08-16T10:44:10.462Z,60.70
2018-08-16T10:46:38.938Z,61.05
2018-08-16T10:49:07.506Z,58.20
2018-08-16T10:51:36.162Z,57.58
2018-08-16T10:54:04.655Z,57.26
2018-08-16T10:56:33.152Z,55.78
2018-08-16T10:59:01.685Z,57.37
2018-08-16T11:01:30.270Z,57.49
2018-08-16T11:03:58.761Z,57.42
2018-08-16T11:06:27.248Z,58.11
2018-08-16T11:08:55.805Z,57.03
2018-08-16T11:11:24.676Z,57.24
2018-08-16T11:13:53.265Z,56.34
2018-08-16T11:16:21.769Z,55.47
2018-08-16T11:18:50.266Z,57.14
2018-08-16T11:21:18.796Z,56.88
2018-08-16T11:23:47.337Z,55.20
2018-08-16T11:26:15.854Z,54.83
2018-08-16T11:28:44.273Z,53.72
2018-08-16T11:31:12.795Z,53.92
2018-08-16T11:33:41.257Z,55.15
2018-08-16T11:36:09.718Z,54.66
2018-08-16T11:38:38.170Z,55.07
2018-08-16T11:41:06.698Z,54.63
2018-08-16T11:43:35.133Z,52.81
2018-08-16T11:46:03.653Z,53.30
2018-08-16T11:48:32.250Z,53.18
2018-08-16T11:51:00.729Z,53.01
2018-08-16T11:53:29.419Z,52.26
2018-08-16T11:55:57.949Z,50.29
2018-08-16T11:58:26.414Z,50.62
2018-08-16T12:00:55.000Z,52.05
2018-08-16T12:03:23.464Z,50.13
2018-08-16T12:05:51.933Z,50.60
2018-08-16T12:08:20.366Z,51.72
2018-08-16T12:10:48.841Z,51.46
2018-08-16T12:13:17.427Z,52.10
2018-08-16T12:15:45.888Z,50.65
2018-08-16T12:18:14.313Z,48.87
2018-08-16T12:20:42.770Z,48.04
2018-08-16T12:23:11.944Z,47.44
2018-08-16T12:25:41.573Z,48.48
2018-08-16T12:28:09.994Z,49.29
2018-08-16T12:30:38.512Z,46.77
2018-08-16T12:33:07.057Z,47.95
2018-08-16T12:35:35.530Z,48.28
2018-08-16T12:38:04.433Z,48.40
2018-08-16T12:40:33.003Z,48.03
2018-08-16T12:43:01.551Z,47.80
2018-08-16T12:45:30.099Z,47.44
2018-08-16T12:48:04.344Z,47.72
2018-08-16T12:50:32.843Z,48.60
2018-08-16T12:53:01.325Z,46.77
2018-08-16T12:55:29.809Z,48.71
2018-08-16T12:57:58.326Z,45.92
2018-08-16T13:00:26.978Z,46.14
2018-08-16T13:02:55.429Z,44.90
2018-08-16T13:05:23.905Z,43.40
2018-08-16T13:07:52.426Z,42.36
2018-08-16T13:10:21.917Z,43.03
2018-08-16T13:12:50.402Z,42.96
2018-08-16T13:15:18.859Z,41.40
2018-08-16T13:17:47.312Z,40.62
2018-08-16T13:20:15.833Z,41.25
2018-08-16T13:22:44.332Z,42.41
2018-08-16T13:25:12.818Z,40.93
2018-08-16T13:27:41.380Z,38.62
2018-08-16T13:30:09.875Z,36.30
2018-08-16T13:32:38.443Z,34.81
2018-08-16T13:35:07.006Z,33.75
2018-08-16T13:37:35.527Z,34.28
2018-08-16T13:40:04.113Z,32.79
2018-08-16T13:42:32.642Z,32.37
2018-08-16T13:45:01.438Z,32.04
2018-08-16T13:47:30.256Z,31.43
2018-08-16T13:49:58.734Z,34.51
2018-08-16T13:52:27.197Z,34.47
2018-08-16T13:54:59.209Z,33.61
2018-08-16T13:57:27.599Z,34.83
2018-08-16T13:59:56.114Z,32.53
2018-08-16T14:02:24.647Z,32.86
2018-08-16T14:04:53.053Z,30.41
2018-08-16T14:07:21.501Z,29.79
2018-08-16T14:09:50.250Z,29.34
2018-08-16T14:12:18.715Z,29.06
2018-08-16T14:14:47.157Z,28.48
2018-08-16T14:17:15.654Z,30.09
2018-08-16T14:19:44.326Z,29.09
2018-08-16T14:22:12.966Z,34.38
2018-08-16T14:24:41.434Z,31.43
2018-08-16T14:27:09.998Z,29.76
2018-08-16T14:29:39.082Z,31.39
2018-08-16T14:32:08.133Z,29.55
2018-08-16T14:34:36.878Z,29.09
2018-08-16T14:37:06.059Z,29.34
2018-08-16T14:39:34.530Z,29.85
2018-08-16T14:42:03.018Z,30.25
2018-08-16T14:44:31.421Z,29.15
2018-08-16T14:47:13.174Z,31.38
2018-08-16T14:49:41.665Z,30.50
2018-08-16T14:52:10.152Z,31.54
2018-08-16T14:54:42.078Z,31.08
2018-08-16T14:57:10.535Z,30.23
2018-08-16T14:59:39.081Z,30.42
2018-08-16T15:02:08.710Z,28.18
2018-08-16T15:04:37.165Z,28.26
2018-08-16T15:07:05.722Z,29.59
2018-08-16T15:09:34.222Z,28.40
2018-08-16T15:12:02.743Z,28.28
2018-08-16T15:14:32.757Z,28.08
2018-08-16T15:17:01.319Z,30.14
2018-08-16T15:19:29.853Z,30.61
2018-08-16T15:21:58.360Z,30.14
2018-08-16T15:24:26.815Z,28.80
2018-08-16T15:26:55.875Z,29.17
2018-08-16T15:29:24.443Z,27.47
2018-08-16T15:31:52.976Z,28.66
2018-08-16T15:34:21.515Z,27.50
2018-08-16T15:36:56.521Z,27.84
2018-08-16T15:39:26.086Z,28.34
2018-08-16T15:41:58.877Z,27.90
2018-08-16T15:44:27.317Z,27.94
2018-08-16T15:46:55.788Z,27.65
2018-08-16T15:49:24.234Z,26.85
2018-08-16T15:51:52.661Z,26.36
2018-08-16T15:54:21.104Z,26.84
2018-08-16T15:56:49.498Z,26.10
2018-08-16T15:59:18.081Z,27.32
2018-08-16T16:01:46.462Z,28.64
2018-08-16T16:04:14.910Z,31.38
2018-08-16T16:09:46.197Z,31.20
2018-08-16T16:12:14.554Z,30.78
2018-08-16T16:14:55.263Z,30.98
2018-08-16T16:17:23.743Z,31.92
2018-08-16T16:19:52.218Z,32.63
2018-08-16T16:22:20.748Z,30.47
2018-08-16T16:24:49.193Z,30.53
2018-08-16T16:27:17.623Z,31.85
2018-08-16T16:29:46.104Z,31.75
2018-08-16T16:32:15.610Z,32.98
2018-08-16T16:35:17.178Z,32.83
2018-08-16T16:37:45.684Z,32.02
2018-08-16T16:40:14.224Z,35.94
2018-08-16T16:42:42.684Z,35.23
2018-08-16T16:45:11.126Z,34.64
2018-08-16T16:47:39.533Z,37.44
2018-08-16T16:50:09.918Z,35.80
2018-08-16T16:52:38.375Z,37.98
2018-08-16T16:55:09.990Z,39.98
2018-08-16T16:57:38.524Z,40.87
2018-08-16T17:00:08.441Z,41.10
2018-08-16T17:02:36.979Z,41.86
2018-08-16T17:05:05.761Z,41.27
2018-08-16T17:07:34.241Z,41.89
2018-08-16T17:10:02.857Z,42.38
2018-08-16T17:12:32.438Z,42.33
2018-08-16T17:15:00.937Z,42.29
2018-08-16T17:17:30.486Z,43.65
2018-08-16T17:19:58.989Z,43.63
2018-08-16T17:22:27.566Z,45.03
2018-08-16T17:25:07.461Z,45.75
2018-08-16T17:27:36.036Z,45.68
2018-08-16T17:30:05.435Z,46.30
2018-08-16T17:32:34.015Z,47.04
2018-08-16T17:35:02.609Z,47.29
2018-08-16T17:37:31.201Z,48.14
2018-08-16T17:39:59.877Z,48.25
2018-08-16T17:42:28.426Z,49.18
2018-08-16T17:44:56.931Z,48.86
2018-08-16T17:47:25.422Z,48.95
2018-08-16T17:49:53.982Z,48.96
2018-08-16T17:52:22.418Z,49.02
2018-08-16T17:54:50.858Z,49.45
2018-08-16T17:57:19.279Z,49.11
2018-08-16T17:59:58.292Z,50.75
2018-08-16T18:02:26.777Z,50.74
2018-08-16T18:04:55.308Z,50.72
2018-08-16T18:07:23.775Z,50.70
2018-08-16T18:09:52.245Z,50.88
2018-08-16T18:12:21.769Z,50.90
2018-08-16T18:14:50.241Z,51.79
2018-08-16T18:17:26.776Z,51.47
2018-08-16T18:19:55.341Z,51.82
2018-08-16T18:22:23.813Z,51.98
2018-08-16T18:24:56.554Z,52.24
2018-08-16T18:27:24.974Z,52.73
2018-08-16T18:29:53.436Z,53.09
2018-08-16T18:32:21.836Z,53.36
2018-08-16T18:34:50.434Z,53.01
2018-08-16T18:37:18.848Z,53.61
2018-08-16T18:39:47.289Z,53.91
2018-08-16T18:42:15.705Z,54.32
2018-08-16T18:44:44.218Z,55.14
2018-08-16T18:47:17.910Z,55.18
2018-08-16T18:49:46.397Z,56.25
2018-08-16T18:52:14.813Z,55.96
2018-08-16T18:54:49.009Z,56.02
2018-08-16T18:57:17.466Z,56.85
2018-08-16T18:59:45.950Z,56.39
2018-08-16T19:02:14.347Z,56.86
2018-08-16T19:04:42.782Z,56.96
2018-08-16T19:07:11.701Z,57.62
2018-08-16T19:12:07.051Z,59.31
2018-08-16T19:14:36.671Z,59.00
2018-08-16T19:17:05.181Z,58.77
2018-08-16T19:19:33.650Z,59.12
2018-08-16T19:22:02.405Z,59.46
2018-08-16T19:24:30.982Z,59.62
2018-08-16T19:26:59.553Z,59.00
2018-08-16T19:29:28.161Z,59.28
2018-08-16T19:31:56.677Z,59.71
2018-08-16T19:34:29.666Z,59.85
2018-08-16T19:36:58.252Z,60.02
2018-08-16T19:39:26.750Z,60.05
2018-08-16T19:41:55.261Z,60.90
2018-08-16T19:44:23.685Z,60.67
2018-08-16T19:46:54.197Z,60.67
2018-08-16T19:49:22.728Z,60.86
2018-08-16T19:51:51.170Z,61.40
2018-08-16T19:54:19.702Z,61.67
2018-08-16T19:56:48.239Z,61.29
2018-08-16T19:59:16.754Z,61.92
2018-08-16T20:01:48.466Z,62.35
2018-08-16T20:04:17.054Z,62.39
2018-08-16T20:06:45.525Z,62.87
2018-08-16T20:09:13.965Z,62.79
2018-08-16T20:11:42.394Z,63.86
2018-08-16T20:14:16.063Z,64.16
2018-08-16T20:16:44.513Z,64.62
2018-08-16T20:19:13.058Z,64.64
2018-08-16T20:21:41.603Z,65.26
2018-08-16T20:24:10.072Z,66.07
2018-08-16T20:26:38.623Z,67.03
2018-08-16T20:29:07.965Z,67.96
2018-08-16T20:31:46.604Z,67.70
2018-08-16T20:34:15.125Z,68.47
2018-08-16T20:36:43.636Z,69.06
2018-08-16T20:39:13.140Z,68.47
2018-08-16T20:41:41.706Z,68.45
2018-08-16T20:44:10.229Z,69.12
2018-08-16T20:46:38.708Z,69.50
2018-08-16T20:49:07.215Z,70.21
2018-08-16T20:51:35.761Z,69.91
2018-08-16T20:54:04.469Z,70.14
2018-08-16T20:56:33.053Z,68.99
2018-08-16T20:59:01.545Z,69.68
2018-08-16T21:01:30.031Z,70.44
2018-08-16T21:03:58.452Z,71.26
2018-08-16T21:06:26.912Z,71.85
2018-08-16T21:08:55.390Z,72.52
2018-08-16T21:11:23.924Z,73.01
2018-08-16T21:13:52.374Z,73.59
2018-08-16T21:16:20.871Z,73.08
2018-08-16T21:18:49.311Z,73.03
2018-08-16T21:21:17.757Z,74.00
2018-08-16T21:23:46.366Z,73.71
2018-08-16T21:26:14.868Z,73.95
2018-08-16T21:28:43.316Z,74.30
2018-08-16T21:31:11.783Z,74.84
2018-08-16T21:33:40.227Z,74.65
2018-08-16T21:36:08.658Z,74.95
2018-08-16T21:38:37.116Z,75.56
2018-08-16T21:41:05.814Z,76.35
2018-08-16T21:43:34.229Z,75.84
2018-08-16T21:46:02.701Z,75.03
2018-08-16T21:48:31.178Z,76.40
2018-08-16T21:50:59.664Z,76.45
2018-08-16T21:53:28.146Z,76.32
2018-08-16T21:55:56.618Z,76.21
2018-08-16T21:58:25.075Z,77.00
2018-08-16T22:00:56.001Z,77.54
2018-08-16T22:03:26.705Z,77.29
2018-08-16T22:06:12.657Z,76.86
2018-08-16T22:08:49.083Z,76.84
2018-08-16T22:11:17.539Z,77.22
2018-08-16T22:13:45.963Z,78.11
2018-08-16T22:16:14.467Z,78.22
2018-08-16T22:18:42.952Z,78.54
2018-08-16T22:21:11.803Z,79.11
2018-08-16T22:23:40.326Z,80.05
2018-08-16T22:26:08.924Z,80.08
2018-08-16T22:28:37.293Z,80.87
2018-08-16T22:31:05.879Z,81.38
2018-08-16T22:33:34.320Z,81.56
2018-08-16T22:36:02.761Z,82.16
2018-08-16T22:38:31.206Z,81.91
2018-08-16T22:40:59.794Z,81.88
2018-08-16T22:43:28.221Z,81.96
2018-08-16T22:45:56.637Z,81.39
2018-08-16T22:48:25.051Z,81.84
2018-08-16T22:50:53.562Z,82.23
2018-08-16T22:53:21.983Z,82.69
2018-08-16T22:55:50.427Z,81.86
2018-08-16T22:58:19.024Z,82.44
2018-08-16T23:00:47.585Z,82.61
2018-08-16T23:03:16.112Z,83.55
2018-08-16T23:05:44.531Z,84.19
2018-08-16T23:08:12.960Z,84.02
2018-08-16T23:10:41.418Z,85.03
2018-08-16T23:13:09.909Z,84.79
2018-08-16T23:15:38.357Z,84.67
2018-08-16T23:18:06.808Z,85.35
2018-08-16T23:20:35.332Z,85.09
2018-08-16T23:23:03.787Z,85.19
2018-08-16T23:25:32.226Z,84.99
2018-08-16T23:28:00.699Z,85.16
2018-08-16T23:30:29.153Z,85.23
2018-08-16T23:32:57.602Z,85.83
2018-08-16T23:35:26.021Z,85.50
2018-08-16T23:37:54.472Z,85.86
2018-08-16T23:40:22.930Z,86.78
2018-08-16T23:42:51.793Z,86.99
2018-08-16T23:45:20.316Z,86.02
2018-08-16T23:48:00.069Z,86.42
2018-08-16T23:50:28.570Z,86.53
2018-08-16T23:52:57.048Z,87.08
2018-08-16T23:55:25.527Z,86.65
2018-08-16T23:57:54.034Z,86.88
